createdAt,value
2018-05-02T00:01:29.148Z,991.33
2018-05-02T00:02:28.955Z,991.31
2018-05-02T00:04:25.139Z,991.32
2018-05-02T00:05:24.956Z,991.31
2018-05-02T00:07:20.941Z,991.34
2018-05-02T00:08:20.851Z,991.35
2018-05-02T00:10:16.837Z,991.36
2018-05-02T00:11:16.710Z,991.35
2018-05-02T00:13:12.730Z,991.37
2018-05-02T00:14:12.589Z,991.32
2018-05-02T00:16:08.569Z,991.36
2018-05-02T00:17:08.483Z,991.38
2018-05-02T00:19:02.064Z,991.41
2018-05-02T00:20:01.967Z,991.45
2018-05-02T00:21:58.081Z,991.48
2018-05-02T00:22:57.962Z,991.45
2018-05-02T00:24:53.968Z,991.44
2018-05-02T00:25:53.839Z,991.45
2018-05-02T00:27:47.377Z,991.46
2018-05-02T00:28:47.208Z,991.45
2018-05-02T00:30:43.258Z,991.51
2018-05-02T00:31:43.164Z,991.49
2018-05-02T00:33:39.189Z,991.44
2018-05-02T00:34:38.983Z,991.41
2018-05-02T00:36:35.652Z,991.38
2018-05-02T00:38:51.610Z,991.39
2018-05-02T00:39:51.467Z,991.39
2018-05-02T00:41:47.483Z,991.40
2018-05-02T00:42:47.370Z,991.40
2018-05-02T00:44:54.064Z,991.37
2018-05-02T00:45:53.960Z,991.36
2018-05-02T00:47:49.921Z,991.39
2018-05-02T00:48:49.842Z,991.41
2018-05-02T00:50:43.416Z,991.41
2018-05-02T00:51:43.196Z,991.47
2018-05-02T00:53:40.456Z,991.49
2018-05-02T00:54:39.131Z,991.47
2018-05-02T00:56:35.195Z,991.49
2018-05-02T00:57:35.010Z,991.47
2018-05-02T00:59:31.020Z,991.49
2018-05-02T01:00:30.899Z,991.49
2018-05-02T01:02:25.491Z,991.49
2018-05-02T01:03:25.340Z,991.48
2018-05-02T01:05:21.463Z,991.45
2018-05-02T01:06:21.342Z,991.46
2018-05-02T01:08:17.357Z,991.42
2018-05-02T01:09:17.251Z,991.49
2018-05-02T01:11:10.757Z,991.46
2018-05-02T01:12:10.643Z,991.47
2018-05-02T01:14:06.670Z,991.45
2018-05-02T01:15:06.507Z,991.48
2018-05-02T01:17:03.429Z,991.45
2018-05-02T01:18:03.301Z,991.46
2018-05-02T01:19:59.321Z,991.47
2018-05-02T01:20:59.215Z,991.52
2018-05-02T01:22:55.247Z,991.50
2018-05-02T01:23:55.113Z,991.51
2018-05-02T01:25:49.387Z,991.49
2018-05-02T01:26:49.300Z,991.49
2018-05-02T01:28:45.311Z,991.53
2018-05-02T01:29:45.213Z,991.53
2018-05-02T01:31:41.336Z,991.55
2018-05-02T01:32:41.127Z,991.54
2018-05-02T01:34:37.217Z,991.50
2018-05-02T01:35:37.012Z,991.55
2018-05-02T01:37:32.973Z,991.55
2018-05-02T01:38:32.897Z,991.54
2018-05-02T01:40:29.888Z,991.53
2018-05-02T01:41:29.630Z,991.54
2018-05-02T01:43:25.614Z,991.57
2018-05-02T01:44:25.559Z,991.53
2018-05-02T01:46:21.580Z,991.57
2018-05-02T01:47:21.418Z,991.59
2018-05-02T01:49:17.427Z,991.56
2018-05-02T01:50:17.306Z,991.52
2018-05-02T01:52:14.274Z,991.51
2018-05-02T01:53:14.112Z,991.50
2018-05-02T01:55:10.156Z,991.49
2018-05-02T01:56:10.054Z,991.48
2018-05-02T01:58:06.063Z,991.53
2018-05-02T01:59:05.920Z,991.53
2018-05-02T02:01:01.970Z,991.56
2018-05-02T02:02:01.795Z,991.61
2018-05-02T02:03:57.833Z,991.64
2018-05-02T02:04:57.661Z,991.67
2018-05-02T02:06:53.672Z,991.68
2018-05-02T02:07:53.597Z,991.71
2018-05-02T02:09:49.563Z,991.70
2018-05-02T02:10:49.459Z,991.68
2018-05-02T02:12:45.460Z,991.68
2018-05-02T02:13:45.364Z,991.66
2018-05-02T02:15:41.403Z,991.72
2018-05-02T02:16:41.257Z,991.70
2018-05-02T02:18:37.333Z,991.67
2018-05-02T02:19:37.103Z,991.68
2018-05-02T02:21:33.262Z,991.68
2018-05-02T02:22:33.083Z,991.72
2018-05-02T02:24:29.234Z,991.72
2018-05-02T02:25:28.945Z,991.69
2018-05-02T02:27:25.060Z,991.70
2018-05-02T02:28:24.830Z,991.68
2018-05-02T02:30:20.874Z,991.73
2018-05-02T02:31:20.694Z,991.72
2018-05-02T02:33:16.713Z,991.76
2018-05-02T02:34:16.639Z,991.76
2018-05-02T02:36:10.234Z,991.77
2018-05-02T02:37:10.100Z,991.75
2018-05-02T02:39:06.103Z,991.72
2018-05-02T02:40:05.967Z,991.69
2018-05-02T02:42:01.997Z,991.67
2018-05-02T02:43:01.820Z,991.58
2018-05-02T02:44:58.709Z,991.51
2018-05-02T02:45:58.585Z,991.45
2018-05-02T02:47:54.582Z,991.45
2018-05-02T02:48:54.481Z,991.42
2018-05-02T02:50:50.518Z,991.40
2018-05-02T02:51:50.349Z,991.39
2018-05-02T02:53:46.353Z,991.35
2018-05-02T02:54:46.260Z,991.33
2018-05-02T02:56:42.349Z,991.34
2018-05-02T02:57:42.220Z,991.33
2018-05-02T02:59:36.222Z,991.32
2018-05-02T03:00:35.718Z,991.29
2018-05-02T03:02:31.754Z,991.26
2018-05-02T03:03:31.597Z,991.28
2018-05-02T03:05:25.206Z,991.28
2018-05-02T03:06:25.035Z,991.29
2018-05-02T03:08:21.322Z,991.32
2018-05-02T03:09:21.133Z,991.31
2018-05-02T03:11:17.269Z,991.27
2018-05-02T03:12:17.075Z,991.25
2018-05-02T03:14:13.155Z,991.23
2018-05-02T03:15:12.968Z,991.23
2018-05-02T03:17:08.985Z,991.22
2018-05-02T03:18:08.842Z,991.23
2018-05-02T03:20:04.889Z,991.26
2018-05-02T03:21:04.730Z,991.21
2018-05-02T03:23:00.773Z,991.19
2018-05-02T03:24:00.661Z,991.20
2018-05-02T03:25:56.693Z,991.21
2018-05-02T03:26:56.540Z,991.18
2018-05-02T03:28:52.578Z,991.20
2018-05-02T03:29:52.415Z,991.14
2018-05-02T03:31:48.424Z,991.15
2018-05-02T03:32:48.309Z,991.20
2018-05-02T03:34:44.351Z,991.21
2018-05-02T03:35:44.244Z,991.16
2018-05-02T03:37:40.336Z,991.15
2018-05-02T03:38:40.215Z,991.10
2018-05-02T03:40:37.041Z,991.13
2018-05-02T03:41:36.915Z,991.12
2018-05-02T03:43:32.941Z,991.04
2018-05-02T03:44:32.846Z,991.11
2018-05-02T03:46:28.828Z,991.13
2018-05-02T03:47:28.694Z,991.14
2018-05-02T03:49:24.681Z,991.18
2018-05-02T03:50:24.568Z,991.16
2018-05-02T03:52:20.573Z,991.18
2018-05-02T03:53:20.449Z,991.16
2018-05-02T03:55:17.350Z,991.12
2018-05-02T03:56:17.157Z,991.08
2018-05-02T03:58:13.401Z,991.01
2018-05-02T03:59:13.188Z,991.04
2018-05-02T04:01:07.695Z,991.03
2018-05-02T04:02:07.627Z,991.04
2018-05-02T04:04:03.630Z,991.07
2018-05-02T04:05:03.492Z,991.06
2018-05-02T04:06:59.525Z,991.07
2018-05-02T04:07:59.396Z,991.04
2018-05-02T04:09:55.392Z,991.03
2018-05-02T04:10:55.333Z,991.03
2018-05-02T04:12:51.357Z,991.12
2018-05-02T04:15:07.305Z,991.14
2018-05-02T04:16:07.155Z,991.08
2018-05-02T04:18:03.171Z,991.09
2018-05-02T04:19:03.038Z,991.09
2018-05-02T04:20:59.118Z,991.13
2018-05-02T04:21:58.925Z,991.15
2018-05-02T04:23:54.985Z,991.13
2018-05-02T04:24:54.793Z,991.12
2018-05-02T04:26:50.786Z,991.12
2018-05-02T04:27:50.673Z,991.16
2018-05-02T04:29:46.725Z,991.15
2018-05-02T04:30:46.540Z,991.21
2018-05-02T04:32:42.607Z,991.29
2018-05-02T04:33:42.440Z,991.33
2018-05-02T04:35:38.429Z,991.42
2018-05-02T04:36:38.327Z,991.44
2018-05-02T04:38:34.352Z,991.46
2018-05-02T04:39:34.236Z,991.44
2018-05-02T04:41:30.285Z,991.43
2018-05-02T04:42:30.169Z,991.45
2018-05-02T04:44:26.219Z,991.39
2018-05-02T04:45:26.044Z,991.37
2018-05-02T04:47:22.136Z,991.42
2018-05-02T04:48:21.991Z,991.42
2018-05-02T04:50:18.398Z,991.43
2018-05-02T04:51:17.799Z,991.44
2018-05-02T04:53:13.818Z,991.39
2018-05-02T04:54:13.708Z,991.40
2018-05-02T04:56:09.786Z,991.40
2018-05-02T04:57:09.585Z,991.45
2018-05-02T04:59:05.635Z,991.47
2018-05-02T05:00:05.528Z,991.47
2018-05-02T05:02:01.751Z,991.52
2018-05-02T05:03:01.622Z,991.53
2018-05-02T05:04:57.646Z,991.52
2018-05-02T05:05:57.522Z,991.50
2018-05-02T05:07:53.550Z,991.55
2018-05-02T05:08:53.437Z,991.52
2018-05-02T05:10:49.524Z,991.55
2018-05-02T05:11:49.416Z,991.61
2018-05-02T05:13:45.431Z,991.59
2018-05-02T05:14:45.238Z,991.57
2018-05-02T05:16:41.364Z,991.54
2018-05-02T05:17:41.125Z,991.57
2018-05-02T05:19:38.113Z,991.60
2018-05-02T05:20:37.917Z,991.59
2018-05-02T05:22:31.497Z,991.58
2018-05-02T05:23:31.387Z,991.55
2018-05-02T05:25:27.494Z,991.54
2018-05-02T05:26:27.225Z,991.55
2018-05-02T05:28:23.504Z,991.57
2018-05-02T05:29:23.390Z,991.54
2018-05-02T05:31:19.451Z,991.54
2018-05-02T05:32:19.232Z,991.55
2018-05-02T05:34:15.347Z,991.57
2018-05-02T05:35:15.160Z,991.58
2018-05-02T05:37:11.114Z,991.59
2018-05-02T05:38:11.006Z,991.56
2018-05-02T05:40:06.787Z,991.50
2018-05-02T05:41:06.669Z,991.53
2018-05-02T05:43:02.691Z,991.51
2018-05-02T05:44:02.572Z,991.50
2018-05-02T05:45:56.095Z,991.54
2018-05-02T05:46:55.988Z,991.49
2018-05-02T05:48:52.028Z,991.48
2018-05-02T05:49:51.905Z,991.47
2018-05-02T05:51:47.903Z,991.50
2018-05-02T05:52:47.787Z,991.50
2018-05-02T05:54:43.801Z,991.54
2018-05-02T05:55:43.703Z,991.48
2018-05-02T05:57:40.179Z,991.49
2018-05-02T05:58:39.584Z,991.41
2018-05-02T06:00:36.059Z,991.39
2018-05-02T06:01:35.473Z,991.42
2018-05-02T06:03:31.551Z,991.42
2018-05-02T06:04:31.425Z,991.40
2018-05-02T06:06:27.482Z,991.31
2018-05-02T06:07:27.277Z,991.29
2018-05-02T06:09:23.260Z,991.25
2018-05-02T06:10:23.168Z,991.26
2018-05-02T06:12:19.188Z,991.28
2018-05-02T06:14:35.089Z,991.32
2018-05-02T06:15:34.979Z,991.31
2018-05-02T06:17:30.992Z,991.30
2018-05-02T06:18:30.873Z,991.32
2018-05-02T06:20:24.408Z,991.28
2018-05-02T06:21:24.405Z,991.27
2018-05-02T06:23:20.361Z,991.26
2018-05-02T06:24:20.245Z,991.25
2018-05-02T06:26:16.317Z,991.34
2018-05-02T06:27:16.154Z,991.35
2018-05-02T06:29:12.292Z,991.34
2018-05-02T06:30:12.074Z,991.34
2018-05-02T06:32:08.097Z,991.37
2018-05-02T06:33:07.969Z,991.40
2018-05-02T06:35:20.083Z,991.43
2018-05-02T06:36:19.938Z,991.43
2018-05-02T06:38:14.251Z,991.44
2018-05-02T06:39:14.056Z,991.42
2018-05-02T06:41:10.097Z,991.47
2018-05-02T06:42:09.963Z,991.42
2018-05-02T06:44:06.013Z,991.39
2018-05-02T06:45:05.892Z,991.33
2018-05-02T06:47:01.939Z,991.33
2018-05-02T06:48:01.809Z,991.35
2018-05-02T06:49:01.791Z,991.33
2018-05-02T06:50:01.766Z,991.32
2018-05-02T06:51:01.733Z,991.33
2018-05-02T06:52:01.757Z,991.36
2018-05-02T06:53:01.686Z,991.36
2018-05-02T06:54:01.665Z,991.37
2018-05-02T06:55:01.640Z,991.41
2018-05-02T06:56:01.639Z,991.43
2018-05-02T06:57:01.589Z,991.42
2018-05-02T06:58:01.572Z,991.43
2018-05-02T06:59:01.555Z,991.40
2018-05-02T07:00:01.561Z,991.40
2018-05-02T07:01:01.539Z,991.39
2018-05-02T07:02:01.543Z,991.35
2018-05-02T07:03:01.540Z,991.32
2018-05-02T07:04:01.543Z,991.28
2018-05-02T07:05:01.523Z,991.28
2018-05-02T07:06:01.443Z,991.27
2018-05-02T07:07:01.359Z,991.26
2018-05-02T07:08:01.337Z,991.27
2018-05-02T07:09:01.314Z,991.28
2018-05-02T07:10:01.330Z,991.28
2018-05-02T07:11:01.332Z,991.26
2018-05-02T07:12:01.243Z,991.21
2018-05-02T07:13:01.221Z,991.20
2018-05-02T07:14:01.198Z,991.18
2018-05-02T07:15:01.186Z,991.18
2018-05-02T07:16:01.154Z,991.19
2018-05-02T07:17:01.135Z,991.19
2018-05-02T07:18:01.106Z,991.18
2018-05-02T07:19:01.087Z,991.15
2018-05-02T07:20:01.061Z,991.16
2018-05-02T07:21:01.035Z,991.09
2018-05-02T07:22:01.025Z,991.12
2018-05-02T07:23:00.993Z,991.11
2018-05-02T07:24:00.969Z,991.07
2018-05-02T07:25:00.944Z,991.10
2018-05-02T07:26:00.920Z,991.13
2018-05-02T07:27:00.920Z,991.11
2018-05-02T07:28:00.884Z,991.11
2018-05-02T07:29:00.853Z,991.13
2018-05-02T07:30:00.827Z,991.15
2018-05-02T07:31:00.807Z,991.10
2018-05-02T07:32:00.786Z,991.10
2018-05-02T07:33:00.791Z,991.12
2018-05-02T07:34:00.739Z,991.09
2018-05-02T07:35:00.713Z,991.07
2018-05-02T07:36:00.695Z,991.05
2018-05-02T07:37:00.669Z,991.03
2018-05-02T07:38:00.651Z,991.01
2018-05-02T07:39:00.635Z,991.06
2018-05-02T07:40:00.608Z,991.07
2018-05-02T07:41:00.572Z,991.09
2018-05-02T07:42:00.560Z,991.11
2018-05-02T07:43:00.531Z,991.12
2018-05-02T07:44:00.504Z,991.12
2018-05-02T07:45:00.493Z,991.11
2018-05-02T07:46:00.460Z,991.06
2018-05-02T07:47:00.444Z,991.06
2018-05-02T07:48:00.464Z,991.05
2018-05-02T07:49:00.402Z,991.00
2018-05-02T07:50:00.422Z,991.02
2018-05-02T07:51:00.345Z,990.99
2018-05-02T07:52:00.327Z,991.02
2018-05-02T07:53:00.303Z,991.04
2018-05-02T07:54:00.276Z,991.03
2018-05-02T07:55:00.256Z,991.05
2018-05-02T07:56:00.264Z,991.02
2018-05-02T07:57:00.243Z,991.03
2018-05-02T07:58:00.193Z,991.00
2018-05-02T07:59:00.166Z,991.00
2018-05-02T08:00:00.138Z,991.00
2018-05-02T08:01:00.119Z,990.99
2018-05-02T08:02:00.095Z,990.97
2018-05-02T08:03:00.074Z,991.00
2018-05-02T08:04:00.057Z,991.00
2018-05-02T08:05:00.031Z,990.99
2018-05-02T08:06:00.002Z,990.97
2018-05-02T08:06:59.981Z,991.01
2018-05-02T08:07:59.957Z,990.97
2018-05-02T08:08:59.939Z,990.98
2018-05-02T08:09:59.922Z,990.95
2018-05-02T08:10:59.905Z,990.94
2018-05-02T08:11:59.866Z,990.93
2018-05-02T08:12:59.842Z,990.87
2018-05-02T08:13:59.822Z,990.88
2018-05-02T08:14:59.797Z,990.84
2018-05-02T08:15:59.777Z,990.79
2018-05-02T08:16:59.754Z,990.81
2018-05-02T08:17:59.733Z,990.78
2018-05-02T08:18:59.709Z,990.81
2018-05-02T08:19:59.689Z,990.75
2018-05-02T08:20:59.691Z,990.76
2018-05-02T08:21:59.719Z,990.78
2018-05-02T08:22:59.618Z,990.75
2018-05-02T08:23:59.618Z,990.78
2018-05-02T08:24:59.625Z,990.76
2018-05-02T08:25:59.627Z,990.77
2018-05-02T08:26:59.634Z,990.76
2018-05-02T08:27:59.649Z,990.78
2018-05-02T08:28:59.594Z,990.76
2018-05-02T08:29:59.553Z,990.75
2018-05-02T08:30:59.437Z,990.74
2018-05-02T08:31:59.411Z,990.76
2018-05-02T08:32:59.435Z,990.72
2018-05-02T08:33:59.363Z,990.76
2018-05-02T08:34:59.353Z,990.73
2018-05-02T08:35:59.324Z,990.74
2018-05-02T08:36:59.299Z,990.67
2018-05-02T08:37:59.275Z,990.67
2018-05-02T08:38:59.370Z,990.63
2018-05-02T08:39:59.234Z,990.68
2018-05-02T08:40:59.211Z,990.68
2018-05-02T08:41:59.260Z,990.71
2018-05-02T08:42:59.167Z,990.72
2018-05-02T08:43:59.147Z,990.71
2018-05-02T08:44:59.119Z,990.71
2018-05-02T08:45:59.138Z,990.72
2018-05-02T08:47:05.802Z,990.73
2018-05-02T08:47:59.058Z,990.74
2018-05-02T08:48:59.042Z,990.69
2018-05-02T08:49:59.092Z,990.66
2018-05-02T08:50:58.989Z,990.64
2018-05-02T08:51:58.967Z,990.64
2018-05-02T08:52:58.969Z,990.62
2018-05-02T08:53:58.915Z,990.61
2018-05-02T08:54:58.915Z,990.64
2018-05-02T08:55:58.875Z,990.60
2018-05-02T08:56:58.898Z,990.60
2018-05-02T08:57:58.850Z,990.60
2018-05-02T08:58:58.805Z,990.59
2018-05-02T08:59:58.786Z,990.62
2018-05-02T09:00:58.771Z,990.62
2018-05-02T09:01:58.746Z,990.61
2018-05-02T09:02:58.738Z,990.60
2018-05-02T09:03:58.698Z,990.60
2018-05-02T09:04:58.675Z,990.56
2018-05-02T09:05:58.652Z,990.57
2018-05-02T09:06:58.637Z,990.56
2018-05-02T09:07:58.608Z,990.52
2018-05-02T09:08:58.600Z,990.44
2018-05-02T09:09:58.635Z,990.45
2018-05-02T09:10:58.541Z,990.44
2018-05-02T09:11:58.522Z,990.43
2018-05-02T09:12:58.496Z,990.44
2018-05-02T09:13:58.489Z,990.40
2018-05-02T09:14:58.453Z,990.38
2018-05-02T09:15:58.434Z,990.32
2018-05-02T09:16:58.409Z,990.31
2018-05-02T09:17:58.390Z,990.31
2018-05-02T09:18:58.371Z,990.25
2018-05-02T09:19:58.345Z,990.26
2018-05-02T09:20:58.329Z,990.21
2018-05-02T09:21:58.298Z,990.23
2018-05-02T09:22:58.279Z,990.21
2018-05-02T09:23:58.254Z,990.18
2018-05-02T09:24:58.241Z,990.20
2018-05-02T09:25:58.212Z,990.21
2018-05-02T09:26:58.193Z,990.20
2018-05-02T09:27:58.172Z,990.24
2018-05-02T09:28:58.146Z,990.24
2018-05-02T09:29:58.126Z,990.23
2018-05-02T09:30:58.115Z,990.17
2018-05-02T09:31:58.077Z,990.14
2018-05-02T09:32:58.059Z,990.11
2018-05-02T09:33:58.040Z,990.10
2018-05-02T09:34:58.027Z,990.14
2018-05-02T09:35:57.990Z,990.10
2018-05-02T09:36:57.973Z,990.13
2018-05-02T09:37:57.947Z,990.08
2018-05-02T09:38:57.925Z,990.08
2018-05-02T09:39:59.039Z,990.14
2018-05-02T09:40:57.884Z,990.14
2018-05-02T09:41:57.870Z,990.08
2018-05-02T09:42:57.851Z,990.13
2018-05-02T09:43:57.826Z,990.12
2018-05-02T09:44:57.801Z,990.05
2018-05-02T09:45:57.778Z,990.04
2018-05-02T09:46:57.754Z,990.06
2018-05-02T09:47:57.728Z,990.05
2018-05-02T09:48:57.708Z,990.01
2018-05-02T09:49:57.703Z,989.99
2018-05-02T09:50:57.699Z,989.99
2018-05-02T09:51:57.727Z,989.95
2018-05-02T09:52:57.697Z,989.96
2018-05-02T09:53:57.700Z,989.94
2018-05-02T09:54:57.721Z,989.92
2018-05-02T09:55:57.590Z,989.92
2018-05-02T09:56:57.583Z,989.88
2018-05-02T09:57:57.517Z,989.89
2018-05-02T09:58:57.505Z,989.91
2018-05-02T09:59:57.466Z,989.91
2018-05-02T10:00:58.387Z,989.92
2018-05-02T10:01:57.421Z,989.91
2018-05-02T10:02:57.404Z,989.93
2018-05-02T10:03:57.375Z,989.94
2018-05-02T10:04:57.357Z,989.91
2018-05-02T10:05:57.335Z,989.92
2018-05-02T10:06:57.310Z,989.89
2018-05-02T10:07:57.292Z,989.84
2018-05-02T10:08:57.270Z,989.86
2018-05-02T10:09:57.266Z,989.83
2018-05-02T10:10:57.231Z,989.82
2018-05-02T10:11:57.208Z,989.85
2018-05-02T10:12:57.186Z,989.85
2018-05-02T10:13:57.160Z,989.87
2018-05-02T10:14:57.138Z,989.85
2018-05-02T10:15:57.117Z,989.89
2018-05-02T10:16:57.095Z,989.88
2018-05-02T10:17:57.076Z,989.81
2018-05-02T10:18:57.054Z,989.77
2018-05-02T10:19:57.036Z,989.78
2018-05-02T10:20:57.008Z,989.69
2018-05-02T10:21:57.792Z,989.74
2018-05-02T10:22:56.964Z,989.71
2018-05-02T10:23:56.947Z,989.72
2018-05-02T10:24:56.922Z,989.71
2018-05-02T10:25:56.899Z,989.70
2018-05-02T10:26:56.890Z,989.65
2018-05-02T10:27:56.857Z,989.66
2018-05-02T10:28:56.836Z,989.63
2018-05-02T10:29:56.811Z,989.62
2018-05-02T10:30:56.833Z,989.55
2018-05-02T10:31:56.804Z,989.59
2018-05-02T10:32:56.796Z,989.49
2018-05-02T10:33:56.725Z,989.43
2018-05-02T10:34:56.723Z,989.46
2018-05-02T10:35:56.682Z,989.47
2018-05-02T10:36:56.710Z,989.46
2018-05-02T10:37:56.639Z,989.45
2018-05-02T10:38:56.621Z,989.46
2018-05-02T10:39:56.597Z,989.43
2018-05-02T10:40:56.577Z,989.44
2018-05-02T10:41:56.554Z,989.42
2018-05-02T10:42:56.852Z,989.37
2018-05-02T10:43:56.518Z,989.35
2018-05-02T10:44:56.497Z,989.33
2018-05-02T10:45:56.478Z,989.37
2018-05-02T10:46:56.446Z,989.36
2018-05-02T10:49:28.700Z,989.39
2018-05-02T10:50:28.588Z,989.34
2018-05-02T10:52:24.670Z,989.33
2018-05-02T10:53:24.529Z,989.33
2018-05-02T10:55:20.787Z,989.34
2018-05-02T10:56:20.615Z,989.32
2018-05-02T10:58:16.758Z,989.28
2018-05-02T10:59:16.662Z,989.27
2018-05-02T11:01:11.267Z,989.27
2018-05-02T11:02:11.153Z,989.24
2018-05-02T11:04:07.220Z,989.19
2018-05-02T11:05:07.069Z,989.09
2018-05-02T11:07:00.678Z,989.12
2018-05-02T11:08:00.561Z,989.10
2018-05-02T11:09:56.571Z,989.06
2018-05-02T11:10:56.451Z,989.05
2018-05-02T11:12:52.951Z,989.01
2018-05-02T11:13:52.374Z,989.01
2018-05-02T11:15:48.384Z,989.05
2018-05-02T11:16:48.286Z,989.03
2018-05-02T11:18:44.315Z,989.01
2018-05-02T11:19:44.208Z,988.97
2018-05-02T11:21:40.220Z,988.97
2018-05-02T11:22:40.109Z,988.98
2018-05-02T11:24:36.156Z,989.05
2018-05-02T11:25:35.997Z,989.05
2018-05-02T11:27:32.033Z,989.07
2018-05-02T11:28:31.930Z,989.06
2018-05-02T11:30:28.061Z,989.02
2018-05-02T11:31:27.951Z,989.04
2018-05-02T11:33:24.064Z,988.99
2018-05-02T11:34:23.942Z,989.02
2018-05-02T11:36:19.950Z,989.05
2018-05-02T11:37:19.844Z,989.06
2018-05-02T11:39:15.899Z,989.12
2018-05-02T11:40:15.783Z,989.05
2018-05-02T11:42:11.877Z,989.12
2018-05-02T11:43:11.806Z,989.13
2018-05-02T11:45:07.806Z,989.18
2018-05-02T11:46:07.608Z,989.21
2018-05-02T11:48:03.834Z,989.30
2018-05-02T11:49:03.621Z,989.37
2018-05-02T11:50:59.807Z,989.12
2018-05-02T11:51:59.609Z,989.07
2018-05-02T11:53:55.769Z,988.98
2018-05-02T11:54:55.575Z,989.08
2018-05-02T11:56:51.584Z,989.11
2018-05-02T11:57:51.541Z,989.00
2018-05-02T11:59:47.505Z,988.87
2018-05-02T12:00:47.375Z,988.83
2018-05-02T12:02:44.439Z,988.84
2018-05-02T12:03:44.230Z,988.87
2018-05-02T12:05:40.306Z,988.79
2018-05-02T12:06:40.189Z,988.76
2018-05-02T12:08:36.262Z,988.75
2018-05-02T12:09:36.094Z,988.68
2018-05-02T12:11:32.153Z,988.61
2018-05-02T12:12:32.046Z,988.58
2018-05-02T12:14:28.027Z,988.61
2018-05-02T12:15:27.908Z,988.62
2018-05-02T12:17:23.942Z,988.68
2018-05-02T12:18:23.833Z,988.64
2018-05-02T12:20:19.921Z,988.61
2018-05-02T12:21:19.835Z,988.64
2018-05-02T12:23:16.274Z,988.60
2018-05-02T12:24:15.820Z,988.58
2018-05-02T12:26:11.894Z,988.60
2018-05-02T12:27:11.649Z,988.55
2018-05-02T12:29:07.839Z,988.43
2018-05-02T12:30:07.643Z,988.42
2018-05-02T12:32:03.836Z,988.38
2018-05-02T12:33:03.643Z,988.42
2018-05-02T12:34:57.184Z,988.41
2018-05-02T12:35:57.509Z,988.40
2018-05-02T12:37:53.094Z,988.39
2018-05-02T12:38:52.996Z,988.38
2018-05-02T12:40:49.014Z,988.40
2018-05-02T12:41:48.888Z,988.40
2018-05-02T12:43:44.942Z,988.34
2018-05-02T12:44:44.796Z,988.33
2018-05-02T12:46:40.929Z,988.30
2018-05-02T12:47:40.756Z,988.29
2018-05-02T12:49:44.973Z,988.25
2018-05-02T12:50:44.849Z,988.20
2018-05-02T12:52:40.918Z,988.17
2018-05-02T12:53:40.809Z,988.20
2018-05-02T12:55:36.967Z,988.13
2018-05-02T12:56:36.863Z,988.10
2018-05-02T12:57:36.832Z,988.06
2018-05-02T12:58:36.813Z,988.02
2018-05-02T12:59:36.790Z,987.99
2018-05-02T13:00:36.796Z,987.98
2018-05-02T13:01:36.755Z,987.96
2018-05-02T13:02:36.823Z,987.94
2018-05-02T13:03:36.732Z,987.93
2018-05-02T13:04:36.690Z,987.93
2018-05-02T13:05:36.678Z,987.91
2018-05-02T13:06:36.651Z,987.89
2018-05-02T13:07:36.634Z,987.88
2018-05-02T13:08:36.617Z,987.87
2018-05-02T13:09:36.595Z,987.86
2018-05-02T13:10:36.573Z,987.88
2018-05-02T13:11:36.568Z,987.90
2018-05-02T13:12:36.541Z,987.92
2018-05-02T13:13:36.522Z,987.92
2018-05-02T13:14:36.497Z,987.93
2018-05-02T13:15:36.520Z,987.93
2018-05-02T13:16:36.460Z,987.95
2018-05-02T13:17:36.436Z,987.99
2018-05-02T13:18:36.417Z,987.98
2018-05-02T13:19:36.398Z,987.98
2018-05-02T13:20:36.381Z,987.96
2018-05-02T13:21:36.357Z,987.96
2018-05-02T13:22:36.335Z,987.95
2018-05-02T13:23:36.322Z,987.95
2018-05-02T13:24:36.297Z,987.96
2018-05-02T13:27:11.018Z,987.95
2018-05-02T13:28:10.908Z,987.91
2018-05-02T13:30:06.926Z,987.86
2018-05-02T13:31:06.811Z,987.87
2018-05-02T13:33:02.973Z,987.85
2018-05-02T13:34:02.802Z,987.82
2018-05-02T13:35:58.969Z,987.85
2018-05-02T13:36:58.847Z,987.83
2018-05-02T13:38:55.492Z,987.80
2018-05-02T13:39:54.815Z,987.81
2018-05-02T13:41:50.923Z,987.76
2018-05-02T13:42:50.820Z,987.78
2018-05-02T13:44:46.921Z,987.74
2018-05-02T13:45:46.834Z,987.77
2018-05-02T13:47:40.599Z,987.75
2018-05-02T13:48:40.498Z,987.76
2018-05-02T13:50:34.052Z,987.73
2018-05-02T13:51:33.930Z,987.68
2018-05-02T13:53:29.993Z,987.66
2018-05-02T13:54:29.898Z,987.66
2018-05-02T13:56:25.948Z,987.61
2018-05-02T13:57:25.735Z,987.58
2018-05-02T13:59:30.016Z,987.60
2018-05-02T14:00:29.906Z,987.58
2018-05-02T14:02:25.962Z,987.58
2018-05-02T14:03:25.809Z,987.55
2018-05-02T14:05:21.924Z,987.61
2018-05-02T14:06:22.177Z,987.61
2018-05-02T14:08:17.975Z,987.58
2018-05-02T14:09:17.629Z,987.56
2018-05-02T14:11:13.665Z,987.56
2018-05-02T14:12:13.552Z,987.55
2018-05-02T14:14:09.565Z,987.58
2018-05-02T14:15:09.462Z,987.57
2018-05-02T14:17:03.064Z,987.59
2018-05-02T14:18:03.270Z,987.60
2018-05-02T14:19:58.920Z,987.61
2018-05-02T14:20:58.845Z,987.60
2018-05-02T14:22:54.971Z,987.57
2018-05-02T14:23:54.844Z,987.57
2018-05-02T14:25:51.001Z,987.56
2018-05-02T14:26:50.869Z,987.55
2018-05-02T14:28:46.993Z,987.55
2018-05-02T14:29:46.874Z,987.59
2018-05-02T14:31:43.009Z,987.54
2018-05-02T14:32:42.909Z,987.56
2018-05-02T14:34:39.033Z,987.55
2018-05-02T14:35:38.917Z,987.56
2018-05-02T14:37:32.552Z,987.52
2018-05-02T14:38:32.452Z,987.46
2018-05-02T14:40:28.484Z,987.42
2018-05-02T14:41:28.398Z,987.40
2018-05-02T14:43:24.419Z,987.52
2018-05-02T14:44:24.319Z,987.52
2018-05-02T14:46:20.353Z,987.48
2018-05-02T14:47:20.241Z,987.47
2018-05-02T14:49:16.281Z,987.43
2018-05-02T14:50:16.161Z,987.44
2018-05-02T14:52:12.182Z,987.43
2018-05-02T14:53:12.070Z,987.44
2018-05-02T14:55:08.101Z,987.38
2018-05-02T14:56:07.990Z,987.41
2018-05-02T14:58:04.054Z,987.36
2018-05-02T14:59:03.958Z,987.38
2018-05-02T15:01:00.006Z,987.39
2018-05-02T15:01:59.870Z,987.37
2018-05-02T15:03:55.987Z,987.35
2018-05-02T15:04:55.789Z,987.35
2018-05-02T15:06:51.987Z,987.29
2018-05-02T15:07:51.787Z,987.30
2018-05-02T15:09:47.787Z,987.35
2018-05-02T15:10:47.685Z,987.36
2018-05-02T15:12:43.753Z,987.31
2018-05-02T15:13:43.576Z,987.33
2018-05-02T15:15:37.112Z,987.26
2018-05-02T15:16:37.002Z,987.23
2018-05-02T15:18:33.026Z,987.21
2018-05-02T15:19:32.897Z,987.23
2018-05-02T15:21:29.043Z,987.32
2018-05-02T15:22:28.933Z,987.31
2018-05-02T15:24:25.025Z,987.26
2018-05-02T15:25:24.913Z,987.26
2018-05-02T15:27:18.532Z,987.21
2018-05-02T15:28:18.399Z,987.26
2018-05-02T15:29:18.376Z,987.24
2018-05-02T15:30:19.191Z,987.29
2018-05-02T15:31:18.334Z,987.24
2018-05-02T15:32:18.310Z,987.23
2018-05-02T15:33:18.296Z,987.23
2018-05-02T15:34:18.273Z,987.27
2018-05-02T15:35:18.253Z,987.29
2018-05-02T15:36:18.231Z,987.31
2018-05-02T15:37:18.210Z,987.34
2018-05-02T15:38:18.191Z,987.34
2018-05-02T15:39:18.182Z,987.30
2018-05-02T15:40:18.182Z,987.29
2018-05-02T15:41:18.138Z,987.31
2018-05-02T15:42:18.109Z,987.30
2018-05-02T15:43:18.090Z,987.34
2018-05-02T15:44:18.078Z,987.36
2018-05-02T15:45:18.050Z,987.32
2018-05-02T15:46:18.034Z,987.32
2018-05-02T15:47:18.019Z,987.33
2018-05-02T15:48:18.012Z,987.32
2018-05-02T15:49:18.065Z,987.34
2018-05-02T15:50:18.012Z,987.30
2018-05-02T15:51:18.574Z,987.32
2018-05-02T15:52:17.987Z,987.29
2018-05-02T15:53:17.927Z,987.31
2018-05-02T15:54:17.950Z,987.27
2018-05-02T15:55:17.850Z,987.29
2018-05-02T15:56:17.836Z,987.26
2018-05-02T15:57:17.809Z,987.27
2018-05-02T15:58:17.905Z,987.30
2018-05-02T15:59:17.773Z,987.28
2018-05-02T16:00:17.747Z,987.30
2018-05-02T16:01:17.727Z,987.32